sensor_id;sensor_type;location;lat;lon;timestamp;P1;durP1;ratioP1;P2;durP2;ratioP2
8337;SDS011;4206;48.634;9.516;2023-05-14T00:00:44;13.63;;;7.90;;
8337;SDS011;4206;48.634;9.516;2023-05-14T00:03:12;8.87;;;7.57;;
8337;SDS011;4206;48.634;9.516;2023-05-14T00:05:39;9.53;;;7.73;;
8337;SDS011;4206;48.634;9.516;2023-05-14T00:08:06;10.37;;;7.90;;
8337;SDS011;4206;48.634;9.516;2023-05-14T00:10:33;9.80;;;7.87;;
8337;SDS011;4206;48.634;9.516;2023-05-14T00:13:00;11.47;;;8.20;;
8337;SDS011;4206;48.634;9.516;2023-05-14T00:15:27;11.93;;;8.10;;
8337;SDS011;4206;48.634;9.516;2023-05-14T00:17:54;8.50;;;7.30;;
8337;SDS011;4206;48.634;9.516;2023-05-14T00:20:21;8.93;;;8.00;;
8337;SDS011;4206;48.634;9.516;2023-05-14T00:22:48;8.77;;;7.87;;
8337;SDS011;4206;48.634;9.516;2023-05-14T00:25:15;8.83;;;7.50;;
8337;SDS011;4206;48.634;9.516;2023-05-14T00:27:42;9.93;;;7.90;;
8337;SDS011;4206;48.634;9.516;2023-05-14T00:30:09;15.40;;;8.83;;
8337;SDS011;4206;48.634;9.516;2023-05-14T00:32:36;9.47;;;7.67;;
8337;SDS011;4206;48.634;9.516;2023-05-14T00:35:03;11.03;;;7.50;;
8337;SDS011;4206;48.634;9.516;2023-05-14T00:37:30;8.83;;;7.37;;
8337;SDS011;4206;48.634;9.516;2023-05-14T00:39:57;12.70;;;8.50;;
8337;SDS011;4206;48.634;9.516;2023-05-14T00:42:24;10.57;;;8.70;;
8337;SDS011;4206;48.634;9.516;2023-05-14T00:44:52;11.67;;;8.30;;
8337;SDS011;4206;48.634;9.516;2023-05-14T00:47:19;10.40;;;8.27;;
8337;SDS011;4206;48.634;9.516;2023-05-14T00:49:46;8.87;;;7.70;;
8337;SDS011;4206;48.634;9.516;2023-05-14T00:52:13;10.70;;;8.70;;
8337;SDS011;4206;48.634;9.516;2023-05-14T00:54:41;11.63;;;8.90;;
8337;SDS011;4206;48.634;9.516;2023-05-14T00:57:08;9.63;;;7.90;;
8337;SDS011;4206;48.634;9.516;2023-05-14T00:59:35;9.60;;;8.23;;
8337;SDS011;4206;48.634;9.516;2023-05-14T01:02:02;11.93;;;9.20;;
8337;SDS011;4206;48.634;9.516;2023-05-14T01:04:29;9.57;;;8.23;;
8337;SDS011;4206;48.634;9.516;2023-05-14T01:09:54;8.50;;;7.40;;
8337;SDS011;4206;48.634;9.516;2023-05-14T01:15:24;7.97;;;7.10;;
8337;SDS011;4206;48.634;9.516;2023-05-14T01:17:58;11.77;;;8.47;;
8337;SDS011;4206;48.634;9.516;2023-05-14T01:20:26;9.20;;;8.00;;
8337;SDS011;4206;48.634;9.516;2023-05-14T01:22:53;8.10;;;7.30;;
8337;SDS011;4206;48.634;9.516;2023-05-14T01:25:20;11.43;;;8.17;;
8337;SDS011;4206;48.634;9.516;2023-05-14T01:30:48;10.77;;;8.17;;
8337;SDS011;4206;48.634;9.516;2023-05-14T01:33:19;11.97;;;8.33;;
8337;SDS011;4206;48.634;9.516;2023-05-14T01:35:49;12.93;;;9.00;;
8337;SDS011;4206;48.634;9.516;2023-05-14T01:38:19;11.60;;;8.33;;
8337;SDS011;4206;48.634;9.516;2023-05-14T01:40:46;10.40;;;7.97;;
8337;SDS011;4206;48.634;9.516;2023-05-14T01:43:15;8.57;;;7.67;;
8337;SDS011;4206;48.634;9.516;2023-05-14T01:45:42;11.20;;;7.90;;
8337;SDS011;4206;48.634;9.516;2023-05-14T01:48:09;10.20;;;7.43;;
8337;SDS011;4206;48.634;9.516;2023-05-14T01:50:37;8.93;;;7.13;;
8337;SDS011;4206;48.634;9.516;2023-05-14T01:53:03;9.10;;;7.10;;
8337;SDS011;4206;48.634;9.516;2023-05-14T01:55:30;8.20;;;7.27;;
8337;SDS011;4206;48.634;9.516;2023-05-14T01:57:57;11.80;;;7.30;;
8337;SDS011;4206;48.634;9.516;2023-05-14T02:00:24;7.67;;;6.80;;
8337;SDS011;4206;48.634;9.516;2023-05-14T02:02:51;8.70;;;7.43;;
8337;SDS011;4206;48.634;9.516;2023-05-14T02:05:18;10.20;;;7.50;;
8337;SDS011;4206;48.634;9.516;2023-05-14T02:07:46;9.00;;;8.10;;
8337;SDS011;4206;48.634;9.516;2023-05-14T02:10:13;9.37;;;8.27;;
8337;SDS011;4206;48.634;9.516;2023-05-14T02:12:40;11.97;;;10.03;;
8337;SDS011;4206;48.634;9.516;2023-05-14T02:15:07;13.17;;;8.20;;
8337;SDS011;4206;48.634;9.516;2023-05-14T02:17:36;14.23;;;8.33;;
8337;SDS011;4206;48.634;9.516;2023-05-14T02:20:03;8.63;;;6.97;;
8337;SDS011;4206;48.634;9.516;2023-05-14T02:22:30;7.73;;;6.30;;
8337;SDS011;4206;48.634;9.516;2023-05-14T02:24:57;9.37;;;7.17;;
8337;SDS011;4206;48.634;9.516;2023-05-14T02:27:24;7.03;;;6.33;;
8337;SDS011;4206;48.634;9.516;2023-05-14T02:29:51;8.00;;;6.77;;
8337;SDS011;4206;48.634;9.516;2023-05-14T02:32:18;9.40;;;6.97;;
8337;SDS011;4206;48.634;9.516;2023-05-14T02:34:45;7.83;;;7.03;;
8337;SDS011;4206;48.634;9.516;2023-05-14T02:37:12;10.00;;;7.63;;
8337;SDS011;4206;48.634;9.516;2023-05-14T02:39:39;8.60;;;6.80;;
8337;SDS011;4206;48.634;9.516;2023-05-14T02:42:06;9.40;;;7.30;;
8337;SDS011;4206;48.634;9.516;2023-05-14T02:44:33;9.90;;;7.30;;
8337;SDS011;4206;48.634;9.516;2023-05-14T02:47:00;7.00;;;6.20;;
8337;SDS011;4206;48.634;9.516;2023-05-14T02:49:26;8.60;;;7.00;;
8337;SDS011;4206;48.634;9.516;2023-05-14T02:51:53;8.27;;;7.23;;
8337;SDS011;4206;48.634;9.516;2023-05-14T02:54:20;8.40;;;6.70;;
8337;SDS011;4206;48.634;9.516;2023-05-14T02:56:47;8.13;;;7.07;;
8337;SDS011;4206;48.634;9.516;2023-05-14T02:59:14;8.20;;;7.07;;
8337;SDS011;4206;48.634;9.516;2023-05-14T04:02:16;11.57;;;8.37;;
8337;SDS011;4206;48.634;9.516;2023-05-14T04:04:44;10.30;;;7.73;;
8337;SDS011;4206;48.634;9.516;2023-05-14T04:07:11;11.13;;;8.70;;
8337;SDS011;4206;48.634;9.516;2023-05-14T04:09:37;12.23;;;9.40;;
8337;SDS011;4206;48.634;9.516;2023-05-14T04:12:04;10.70;;;8.47;;
8337;SDS011;4206;48.634;9.516;2023-05-14T04:14:32;13.30;;;8.57;;
8337;SDS011;4206;48.634;9.516;2023-05-14T04:16:59;16.00;;;9.00;;
8337;SDS011;4206;48.634;9.516;2023-05-14T04:19:25;15.80;;;9.33;;
8337;SDS011;4206;48.634;9.516;2023-05-14T04:21:52;11.80;;;8.87;;
8337;SDS011;4206;48.634;9.516;2023-05-14T04:24:19;10.80;;;8.33;;
8337;SDS011;4206;48.634;9.516;2023-05-14T04:26:46;9.63;;;7.90;;
8337;SDS011;4206;48.634;9.516;2023-05-14T04:29:13;9.53;;;8.40;;
8337;SDS011;4206;48.634;9.516;2023-05-14T04:31:40;12.13;;;9.33;;
8337;SDS011;4206;48.634;9.516;2023-05-14T04:34:08;9.93;;;8.37;;
8337;SDS011;4206;48.634;9.516;2023-05-14T04:36:35;9.70;;;8.37;;
8337;SDS011;4206;48.634;9.516;2023-05-14T04:39:02;10.40;;;8.93;;
8337;SDS011;4206;48.634;9.516;2023-05-14T04:41:29;13.40;;;10.13;;
8337;SDS011;4206;48.634;9.516;2023-05-14T04:43:57;10.67;;;9.23;;
8337;SDS011;4206;48.634;9.516;2023-05-14T04:46:26;10.70;;;8.80;;
8337;SDS011;4206;48.634;9.516;2023-05-14T04:48:54;11.27;;;9.10;;
8337;SDS011;4206;48.634;9.516;2023-05-14T04:51:22;10.00;;;8.47;;
8337;SDS011;4206;48.634;9.516;2023-05-14T04:53:49;11.50;;;10.00;;
8337;SDS011;4206;48.634;9.516;2023-05-14T04:56:15;12.13;;;9.07;;
8337;SDS011;4206;48.634;9.516;2023-05-14T04:58:42;12.90;;;9.80;;
8337;SDS011;4206;48.634;9.516;2023-05-14T05:01:09;15.03;;;10.03;;
8337;SDS011;4206;48.634;9.516;2023-05-14T05:03:36;11.17;;;8.97;;
8337;SDS011;4206;48.634;9.516;2023-05-14T05:06:03;10.57;;;9.03;;
8337;SDS011;4206;48.634;9.516;2023-05-14T05:08:30;11.97;;;8.73;;
8337;SDS011;4206;48.634;9.516;2023-05-14T05:10:57;12.87;;;8.50;;
8337;SDS011;4206;48.634;9.516;2023-05-14T05:13:24;12.93;;;9.87;;
8337;SDS011;4206;48.634;9.516;2023-05-14T05:15:51;14.33;;;10.73;;
8337;SDS011;4206;48.634;9.516;2023-05-14T05:18:18;16.23;;;11.20;;
8337;SDS011;4206;48.634;9.516;2023-05-14T05:20:44;14.10;;;10.53;;
8337;SDS011;4206;48.634;9.516;2023-05-14T05:23:11;22.90;;;12.00;;
8337;SDS011;4206;48.634;9.516;2023-05-14T05:25:38;16.60;;;10.47;;
8337;SDS011;4206;48.634;9.516;2023-05-14T05:28:05;15.07;;;11.60;;
8337;SDS011;4206;48.634;9.516;2023-05-14T05:30:32;15.80;;;11.03;;
8337;SDS011;4206;48.634;9.516;2023-05-14T05:32:59;16.80;;;11.80;;
8337;SDS011;4206;48.634;9.516;2023-05-14T05:35:26;22.37;;;12.37;;
8337;SDS011;4206;48.634;9.516;2023-05-14T05:37:53;19.80;;;12.30;;
8337;SDS011;4206;48.634;9.516;2023-05-14T05:40:20;20.30;;;12.10;;
8337;SDS011;4206;48.634;9.516;2023-05-14T05:42:47;23.70;;;12.73;;
8337;SDS011;4206;48.634;9.516;2023-05-14T05:45:14;23.70;;;12.17;;
8337;SDS011;4206;48.634;9.516;2023-05-14T05:47:41;17.60;;;11.80;;
8337;SDS011;4206;48.634;9.516;2023-05-14T05:50:08;20.97;;;12.90;;
8337;SDS011;4206;48.634;9.516;2023-05-14T05:52:35;16.13;;;11.47;;
8337;SDS011;4206;48.634;9.516;2023-05-14T05:55:02;21.83;;;12.63;;
8337;SDS011;4206;48.634;9.516;2023-05-14T05:57:29;24.20;;;14.23;;
8337;SDS011;4206;48.634;9.516;2023-05-14T05:59:56;16.10;;;11.67;;
8337;SDS011;4206;48.634;9.516;2023-05-14T06:02:23;18.20;;;11.80;;
8337;SDS011;4206;48.634;9.516;2023-05-14T06:04:50;20.50;;;12.30;;
8337;SDS011;4206;48.634;9.516;2023-05-14T06:07:18;21.53;;;13.20;;
8337;SDS011;4206;48.634;9.516;2023-05-14T06:09:45;19.00;;;12.40;;
8337;SDS011;4206;48.634;9.516;2023-05-14T06:12:12;16.90;;;12.13;;
8337;SDS011;4206;48.634;9.516;2023-05-14T06:14:38;18.23;;;12.50;;
8337;SDS011;4206;48.634;9.516;2023-05-14T06:17:05;15.90;;;12.03;;
8337;SDS011;4206;48.634;9.516;2023-05-14T06:19:32;15.43;;;11.37;;
8337;SDS011;4206;48.634;9.516;2023-05-14T06:21:59;17.50;;;11.60;;
8337;SDS011;4206;48.634;9.516;2023-05-14T06:24:26;15.73;;;12.37;;
8337;SDS011;4206;48.634;9.516;2023-05-14T06:26:53;18.17;;;12.33;;
8337;SDS011;4206;48.634;9.516;2023-05-14T06:29:20;15.23;;;11.93;;
8337;SDS011;4206;48.634;9.516;2023-05-14T06:31:47;16.73;;;12.27;;
8337;SDS011;4206;48.634;9.516;2023-05-14T06:34:14;17.90;;;12.10;;
8337;SDS011;4206;48.634;9.516;2023-05-14T06:36:40;16.90;;;11.40;;
8337;SDS011;4206;48.634;9.516;2023-05-14T06:39:07;20.03;;;12.47;;
8337;SDS011;4206;48.634;9.516;2023-05-14T06:41:35;16.57;;;13.00;;
8337;SDS011;4206;48.634;9.516;2023-05-14T06:44:01;15.93;;;12.43;;
8337;SDS011;4206;48.634;9.516;2023-05-14T06:46:28;15.70;;;12.17;;
8337;SDS011;4206;48.634;9.516;2023-05-14T06:48:56;16.87;;;11.77;;
8337;SDS011;4206;48.634;9.516;2023-05-14T06:51:24;15.17;;;11.87;;
8337;SDS011;4206;48.634;9.516;2023-05-14T06:53:51;14.80;;;11.40;;
8337;SDS011;4206;48.634;9.516;2023-05-14T06:56:20;13.03;;;10.87;;
8337;SDS011;4206;48.634;9.516;2023-05-14T06:58:47;12.70;;;10.43;;
8337;SDS011;4206;48.634;9.516;2023-05-14T07:01:15;14.93;;;10.57;;
8337;SDS011;4206;48.634;9.516;2023-05-14T07:03:42;13.30;;;11.00;;
8337;SDS011;4206;48.634;9.516;2023-05-14T07:06:09;16.30;;;11.73;;
8337;SDS011;4206;48.634;9.516;2023-05-14T07:08:38;19.67;;;10.80;;
8337;SDS011;4206;48.634;9.516;2023-05-14T07:11:05;14.00;;;10.37;;
8337;SDS011;4206;48.634;9.516;2023-05-14T07:13:32;15.87;;;11.40;;
8337;SDS011;4206;48.634;9.516;2023-05-14T07:15:59;14.10;;;10.67;;
8337;SDS011;4206;48.634;9.516;2023-05-14T07:18:26;11.63;;;10.40;;
8337;SDS011;4206;48.634;9.516;2023-05-14T07:20:54;14.60;;;10.10;;
8337;SDS011;4206;48.634;9.516;2023-05-14T07:23:20;14.40;;;10.20;;
8337;SDS011;4206;48.634;9.516;2023-05-14T07:25:47;15.80;;;10.30;;
8337;SDS011;4206;48.634;9.516;2023-05-14T07:28:14;12.10;;;10.20;;
8337;SDS011;4206;48.634;9.516;2023-05-14T07:30:41;12.47;;;10.70;;
8337;SDS011;4206;48.634;9.516;2023-05-14T07:33:08;11.53;;;9.53;;
8337;SDS011;4206;48.634;9.516;2023-05-14T07:35:35;13.40;;;10.57;;
8337;SDS011;4206;48.634;9.516;2023-05-14T07:38:02;14.40;;;10.90;;
8337;SDS011;4206;48.634;9.516;2023-05-14T07:40:30;14.13;;;10.47;;
8337;SDS011;4206;48.634;9.516;2023-05-14T07:42:58;12.73;;;10.87;;
8337;SDS011;4206;48.634;9.516;2023-05-14T07:45:34;15.93;;;10.27;;
8337;SDS011;4206;48.634;9.516;2023-05-14T07:48:02;14.53;;;9.87;;
8337;SDS011;4206;48.634;9.516;2023-05-14T07:50:29;13.33;;;10.13;;
8337;SDS011;4206;48.634;9.516;2023-05-14T07:52:56;15.47;;;10.90;;
8337;SDS011;4206;48.634;9.516;2023-05-14T07:55:23;11.83;;;9.90;;
8337;SDS011;4206;48.634;9.516;2023-05-14T07:57:51;10.87;;;9.77;;
8337;SDS011;4206;48.634;9.516;2023-05-14T08:00:17;11.50;;;10.30;;
8337;SDS011;4206;48.634;9.516;2023-05-14T08:02:44;12.13;;;10.57;;
8337;SDS011;4206;48.634;9.516;2023-05-14T08:05:12;11.50;;;10.23;;
8337;SDS011;4206;48.634;9.516;2023-05-14T08:07:39;12.30;;;10.00;;
8337;SDS011;4206;48.634;9.516;2023-05-14T08:10:06;11.97;;;10.60;;
8337;SDS011;4206;48.634;9.516;2023-05-14T08:12:34;15.07;;;11.00;;
8337;SDS011;4206;48.634;9.516;2023-05-14T08:15:00;13.23;;;10.87;;
8337;SDS011;4206;48.634;9.516;2023-05-14T08:17:27;14.23;;;9.80;;
8337;SDS011;4206;48.634;9.516;2023-05-14T08:19:55;13.10;;;10.83;;
8337;SDS011;4206;48.634;9.516;2023-05-14T08:22:22;11.60;;;9.83;;
8337;SDS011;4206;48.634;9.516;2023-05-14T08:24:48;12.90;;;11.27;;
8337;SDS011;4206;48.634;9.516;2023-05-14T08:27:15;10.73;;;9.53;;
8337;SDS011;4206;48.634;9.516;2023-05-14T08:29:42;12.23;;;11.00;;
8337;SDS011;4206;48.634;9.516;2023-05-14T08:32:29;12.23;;;10.40;;
8337;SDS011;4206;48.634;9.516;2023-05-14T08:34:56;14.17;;;12.10;;
8337;SDS011;4206;48.634;9.516;2023-05-14T08:37:23;13.97;;;11.63;;
8337;SDS011;4206;48.634;9.516;2023-05-14T08:39:50;13.13;;;10.60;;
8337;SDS011;4206;48.634;9.516;2023-05-14T08:42:18;11.80;;;10.30;;
8337;SDS011;4206;48.634;9.516;2023-05-14T08:44:47;13.57;;;9.33;;
8337;SDS011;4206;48.634;9.516;2023-05-14T08:47:20;11.43;;;9.30;;
8337;SDS011;4206;48.634;9.516;2023-05-14T08:49:51;11.23;;;9.73;;
8337;SDS011;4206;48.634;9.516;2023-05-14T08:52:23;10.67;;;9.27;;
8337;SDS011;4206;48.634;9.516;2023-05-14T08:54:50;13.43;;;9.07;;
8337;SDS011;4206;48.634;9.516;2023-05-14T08:57:19;10.10;;;9.10;;
8337;SDS011;4206;48.634;9.516;2023-05-14T08:59:50;9.80;;;8.80;;
8337;SDS011;4206;48.634;9.516;2023-05-14T09:02:17;9.87;;;8.87;;
8337;SDS011;4206;48.634;9.516;2023-05-14T09:04:48;10.77;;;8.30;;
8337;SDS011;4206;48.634;9.516;2023-05-14T09:07:19;10.77;;;8.50;;
8337;SDS011;4206;48.634;9.516;2023-05-14T09:09:46;8.80;;;7.90;;
8337;SDS011;4206;48.634;9.516;2023-05-14T09:12:13;10.20;;;8.77;;
8337;SDS011;4206;48.634;9.516;2023-05-14T09:14:40;8.97;;;8.03;;
8337;SDS011;4206;48.634;9.516;2023-05-14T09:17:08;14.03;;;9.53;;
8337;SDS011;4206;48.634;9.516;2023-05-14T09:19:38;8.70;;;7.80;;
8337;SDS011;4206;48.634;9.516;2023-05-14T09:22:07;8.60;;;7.70;;
8337;SDS011;4206;48.634;9.516;2023-05-14T09:24:36;11.20;;;8.20;;
8337;SDS011;4206;48.634;9.516;2023-05-14T09:27:04;11.00;;;8.17;;
8337;SDS011;4206;48.634;9.516;2023-05-14T09:29:32;8.13;;;7.23;;
8337;SDS011;4206;48.634;9.516;2023-05-14T09:32:00;7.70;;;6.90;;
8337;SDS011;4206;48.634;9.516;2023-05-14T09:34:31;7.60;;;6.73;;
8337;SDS011;4206;48.634;9.516;2023-05-14T09:37:00;8.00;;;6.63;;
8337;SDS011;4206;48.634;9.516;2023-05-14T09:39:28;8.00;;;6.97;;
8337;SDS011;4206;48.634;9.516;2023-05-14T09:41:56;6.90;;;6.20;;
8337;SDS011;4206;48.634;9.516;2023-05-14T09:44:23;7.50;;;6.70;;
8337;SDS011;4206;48.634;9.516;2023-05-14T09:46:51;9.33;;;6.20;;
8337;SDS011;4206;48.634;9.516;2023-05-14T09:49:20;7.60;;;6.77;;
8337;SDS011;4206;48.634;9.516;2023-05-14T09:51:47;10.70;;;6.70;;
8337;SDS011;4206;48.634;9.516;2023-05-14T09:54:15;7.30;;;6.07;;
8337;SDS011;4206;48.634;9.516;2023-05-14T09:56:42;5.93;;;5.43;;
8337;SDS011;4206;48.634;9.516;2023-05-14T09:59:10;5.43;;;4.93;;
8337;SDS011;4206;48.634;9.516;2023-05-14T10:01:38;6.00;;;4.93;;
8337;SDS011;4206;48.634;9.516;2023-05-14T10:04:08;5.50;;;5.00;;
8337;SDS011;4206;48.634;9.516;2023-05-14T10:06:38;4.90;;;4.40;;
8337;SDS011;4206;48.634;9.516;2023-05-14T10:09:09;5.83;;;5.33;;
8337;SDS011;4206;48.634;9.516;2023-05-14T10:11:40;5.70;;;4.80;;
8337;SDS011;4206;48.634;9.516;2023-05-14T10:14:11;5.97;;;5.37;;
8337;SDS011;4206;48.634;9.516;2023-05-14T10:16:46;6.20;;;4.03;;
8337;SDS011;4206;48.634;9.516;2023-05-14T10:19:16;4.13;;;3.73;;
8337;SDS011;4206;48.634;9.516;2023-05-14T10:21:47;6.47;;;4.50;;
8337;SDS011;4206;48.634;9.516;2023-05-14T10:24:18;4.37;;;3.97;;
8337;SDS011;4206;48.634;9.516;2023-05-14T10:26:46;4.70;;;4.30;;
8337;SDS011;4206;48.634;9.516;2023-05-14T10:29:13;5.17;;;4.57;;
8337;SDS011;4206;48.634;9.516;2023-05-14T10:34:38;8.20;;;4.53;;
8337;SDS011;4206;48.634;9.516;2023-05-14T10:37:09;5.17;;;4.67;;
8337;SDS011;4206;48.634;9.516;2023-05-14T10:39:49;4.03;;;3.73;;
8337;SDS011;4206;48.634;9.516;2023-05-14T10:42:18;4.20;;;3.80;;
8337;SDS011;4206;48.634;9.516;2023-05-14T10:47:18;4.23;;;3.57;;
8337;SDS011;4206;48.634;9.516;2023-05-14T10:49:46;3.70;;;3.20;;
8337;SDS011;4206;48.634;9.516;2023-05-14T10:52:17;3.87;;;3.00;;
8337;SDS011;4206;48.634;9.516;2023-05-14T10:54:48;4.73;;;4.00;;
8337;SDS011;4206;48.634;9.516;2023-05-14T10:57:17;4.37;;;3.67;;
8337;SDS011;4206;48.634;9.516;2023-05-14T10:59:51;5.47;;;4.07;;
8337;SDS011;4206;48.634;9.516;2023-05-14T11:02:49;4.93;;;4.40;;
8337;SDS011;4206;48.634;9.516;2023-05-14T11:05:23;3.60;;;3.30;;
8337;SDS011;4206;48.634;9.516;2023-05-14T11:07:52;3.50;;;3.30;;
8337;SDS011;4206;48.634;9.516;2023-05-14T11:10:23;5.60;;;3.40;;
8337;SDS011;4206;48.634;9.516;2023-05-14T11:12:53;3.80;;;3.50;;
8337;SDS011;4206;48.634;9.516;2023-05-14T11:15:23;3.50;;;3.20;;
8337;SDS011;4206;48.634;9.516;2023-05-14T11:17:52;3.40;;;3.10;;
8337;SDS011;4206;48.634;9.516;2023-05-14T11:20:19;3.10;;;2.80;;
8337;SDS011;4206;48.634;9.516;2023-05-14T11:22:47;3.17;;;2.87;;
8337;SDS011;4206;48.634;9.516;2023-05-14T11:25:16;4.10;;;2.30;;
8337;SDS011;4206;48.634;9.516;2023-05-14T11:27:45;3.83;;;2.67;;
8337;SDS011;4206;48.634;9.516;2023-05-14T11:30:13;2.70;;;2.47;;
8337;SDS011;4206;48.634;9.516;2023-05-14T11:32:44;2.50;;;2.30;;
8337;SDS011;4206;48.634;9.516;2023-05-14T11:35:12;3.50;;;3.00;;
8337;SDS011;4206;48.634;9.516;2023-05-14T11:37:39;2.60;;;2.40;;
8337;SDS011;4206;48.634;9.516;2023-05-14T11:40:08;2.77;;;2.40;;
8337;SDS011;4206;48.634;9.516;2023-05-14T11:42:40;3.30;;;1.97;;
8337;SDS011;4206;48.634;9.516;2023-05-14T11:45:09;2.53;;;2.33;;
8337;SDS011;4206;48.634;9.516;2023-05-14T11:47:38;2.10;;;2.00;;
8337;SDS011;4206;48.634;9.516;2023-05-14T11:50:06;1.97;;;1.87;;
8337;SDS011;4206;48.634;9.516;2023-05-14T11:52:39;2.70;;;2.50;;
8337;SDS011;4206;48.634;9.516;2023-05-14T11:55:13;2.10;;;1.80;;
8337;SDS011;4206;48.634;9.516;2023-05-14T11:57:41;3.20;;;2.80;;
8337;SDS011;4206;48.634;9.516;2023-05-14T12:00:09;2.27;;;1.93;;
8337;SDS011;4206;48.634;9.516;2023-05-14T12:02:47;3.60;;;2.30;;
8337;SDS011;4206;48.634;9.516;2023-05-14T12:05:15;2.50;;;2.30;;
8337;SDS011;4206;48.634;9.516;2023-05-14T12:07:43;3.03;;;2.00;;
8337;SDS011;4206;48.634;9.516;2023-05-14T12:10:11;2.43;;;2.23;;
8337;SDS011;4206;48.634;9.516;2023-05-14T12:12:39;2.40;;;2.10;;
8337;SDS011;4206;48.634;9.516;2023-05-14T12:15:09;2.30;;;2.10;;
8337;SDS011;4206;48.634;9.516;2023-05-14T12:17:38;2.77;;;1.80;;
8337;SDS011;4206;48.634;9.516;2023-05-14T12:20:07;2.40;;;2.20;;
8337;SDS011;4206;48.634;9.516;2023-05-14T12:22:36;2.30;;;2.10;;
8337;SDS011;4206;48.634;9.516;2023-05-14T12:25:03;3.23;;;2.00;;
8337;SDS011;4206;48.634;9.516;2023-05-14T12:27:30;2.23;;;1.53;;
8337;SDS011;4206;48.634;9.516;2023-05-14T12:29:57;2.03;;;1.80;;
8337;SDS011;4206;48.634;9.516;2023-05-14T12:32:45;1.80;;;1.70;;
8337;SDS011;4206;48.634;9.516;2023-05-14T12:35:12;2.50;;;2.30;;
8337;SDS011;4206;48.634;9.516;2023-05-14T12:37:38;1.93;;;1.83;;
8337;SDS011;4206;48.634;9.516;2023-05-14T12:40:05;2.10;;;1.80;;
8337;SDS011;4206;48.634;9.516;2023-05-14T12:42:36;1.43;;;1.33;;
8337;SDS011;4206;48.634;9.516;2023-05-14T12:45:03;2.23;;;1.77;;
8337;SDS011;4206;48.634;9.516;2023-05-14T12:47:33;1.97;;;1.87;;
8337;SDS011;4206;48.634;9.516;2023-05-14T12:50:01;2.63;;;2.27;;
8337;SDS011;4206;48.634;9.516;2023-05-14T12:52:29;4.63;;;2.13;;
8337;SDS011;4206;48.634;9.516;2023-05-14T12:54:59;2.67;;;2.10;;
8337;SDS011;4206;48.634;9.516;2023-05-14T12:57:26;1.97;;;1.87;;
8337;SDS011;4206;48.634;9.516;2023-05-14T12:59:55;2.13;;;1.93;;
8337;SDS011;4206;48.634;9.516;2023-05-14T13:02:22;3.50;;;2.00;;
8337;SDS011;4206;48.634;9.516;2023-05-14T13:04:49;2.13;;;1.93;;
8337;SDS011;4206;48.634;9.516;2023-05-14T13:07:16;2.03;;;1.93;;
8337;SDS011;4206;48.634;9.516;2023-05-14T13:09:43;3.27;;;2.33;;
8337;SDS011;4206;48.634;9.516;2023-05-14T13:12:09;2.40;;;2.20;;
8337;SDS011;4206;48.634;9.516;2023-05-14T13:14:36;2.07;;;1.87;;
8337;SDS011;4206;48.634;9.516;2023-05-14T13:17:03;3.17;;;2.23;;
8337;SDS011;4206;48.634;9.516;2023-05-14T13:19:31;2.33;;;2.00;;
8337;SDS011;4206;48.634;9.516;2023-05-14T13:21:58;5.10;;;2.00;;
8337;SDS011;4206;48.634;9.516;2023-05-14T13:24:24;2.90;;;2.30;;
8337;SDS011;4206;48.634;9.516;2023-05-14T13:26:51;1.87;;;1.77;;
8337;SDS011;4206;48.634;9.516;2023-05-14T13:29:18;2.03;;;1.93;;
8337;SDS011;4206;48.634;9.516;2023-05-14T13:31:45;1.83;;;1.73;;
8337;SDS011;4206;48.634;9.516;2023-05-14T13:34:12;2.20;;;2.00;;
8337;SDS011;4206;48.634;9.516;2023-05-14T13:36:40;2.47;;;2.23;;
8337;SDS011;4206;48.634;9.516;2023-05-14T13:39:09;3.97;;;2.33;;
8337;SDS011;4206;48.634;9.516;2023-05-14T13:41:39;1.63;;;1.53;;
8337;SDS011;4206;48.634;9.516;2023-05-14T13:44:06;2.17;;;1.97;;
8337;SDS011;4206;48.634;9.516;2023-05-14T13:46:33;2.77;;;2.07;;
8337;SDS011;4206;48.634;9.516;2023-05-14T13:49:00;2.17;;;1.97;;
8337;SDS011;4206;48.634;9.516;2023-05-14T13:51:27;2.53;;;1.70;;
8337;SDS011;4206;48.634;9.516;2023-05-14T13:53:54;2.50;;;1.97;;
8337;SDS011;4206;48.634;9.516;2023-05-14T13:56:21;2.17;;;1.97;;
8337;SDS011;4206;48.634;9.516;2023-05-14T13:58:48;2.50;;;1.90;;
8337;SDS011;4206;48.634;9.516;2023-05-14T14:01:15;2.33;;;2.20;;
8337;SDS011;4206;48.634;9.516;2023-05-14T14:03:42;1.70;;;1.60;;
8337;SDS011;4206;48.634;9.516;2023-05-14T14:06:09;1.60;;;1.50;;
8337;SDS011;4206;48.634;9.516;2023-05-14T14:08:36;1.60;;;1.50;;
8337;SDS011;4206;48.634;9.516;2023-05-14T14:11:02;2.10;;;1.90;;
8337;SDS011;4206;48.634;9.516;2023-05-14T14:13:29;2.50;;;2.30;;
8337;SDS011;4206;48.634;9.516;2023-05-14T14:15:56;1.60;;;1.50;;
8337;SDS011;4206;48.634;9.516;2023-05-14T14:18:23;4.60;;;1.97;;
8337;SDS011;4206;48.634;9.516;2023-05-14T14:20:50;2.00;;;1.90;;
8337;SDS011;4206;48.634;9.516;2023-05-14T14:23:17;1.63;;;1.53;;
8337;SDS011;4206;48.634;9.516;2023-05-14T14:25:44;1.70;;;1.60;;
8337;SDS011;4206;48.634;9.516;2023-05-14T14:28:11;1.70;;;1.33;;
8337;SDS011;4206;48.634;9.516;2023-05-14T14:30:38;1.60;;;1.50;;
8337;SDS011;4206;48.634;9.516;2023-05-14T14:33:06;1.60;;;1.50;;
8337;SDS011;4206;48.634;9.516;2023-05-14T14:35:33;1.43;;;1.33;;
8337;SDS011;4206;48.634;9.516;2023-05-14T14:38:01;2.00;;;1.87;;
8337;SDS011;4206;48.634;9.516;2023-05-14T14:40:27;2.30;;;1.90;;
8337;SDS011;4206;48.634;9.516;2023-05-14T14:42:54;1.50;;;1.33;;
8337;SDS011;4206;48.634;9.516;2023-05-14T14:45:21;2.27;;;1.80;;
8337;SDS011;4206;48.634;9.516;2023-05-14T14:47:49;1.40;;;1.30;;
8337;SDS011;4206;48.634;9.516;2023-05-14T14:50:16;1.97;;;1.50;;
8337;SDS011;4206;48.634;9.516;2023-05-14T14:52:42;1.67;;;1.47;;
8337;SDS011;4206;48.634;9.516;2023-05-14T14:55:11;1.70;;;1.60;;
8337;SDS011;4206;48.634;9.516;2023-05-14T14:57:38;1.90;;;1.80;;
8337;SDS011;4206;48.634;9.516;2023-05-14T15:00:05;4.40;;;3.90;;
8337;SDS011;4206;48.634;9.516;2023-05-14T15:02:32;4.00;;;3.13;;
8337;SDS011;4206;48.634;9.516;2023-05-14T15:05:00;6.90;;;3.07;;
8337;SDS011;4206;48.634;9.516;2023-05-14T15:07:27;3.93;;;2.30;;
8337;SDS011;4206;48.634;9.516;2023-05-14T15:09:59;2.87;;;2.67;;
8337;SDS011;4206;48.634;9.516;2023-05-14T15:12:26;2.83;;;2.23;;
8337;SDS011;4206;48.634;9.516;2023-05-14T15:14:52;2.20;;;2.00;;
8337;SDS011;4206;48.634;9.516;2023-05-14T15:17:19;3.97;;;2.97;;
8337;SDS011;4206;48.634;9.516;2023-05-14T15:19:46;5.80;;;3.90;;
8337;SDS011;4206;48.634;9.516;2023-05-14T15:22:13;3.07;;;2.77;;
8337;SDS011;4206;48.634;9.516;2023-05-14T15:24:40;3.20;;;2.80;;
8337;SDS011;4206;48.634;9.516;2023-05-14T15:27:06;3.30;;;2.97;;
8337;SDS011;4206;48.634;9.516;2023-05-14T15:29:33;3.10;;;2.80;;
8337;SDS011;4206;48.634;9.516;2023-05-14T15:32:00;3.77;;;2.23;;
8337;SDS011;4206;48.634;9.516;2023-05-14T15:34:28;2.20;;;2.10;;
8337;SDS011;4206;48.634;9.516;2023-05-14T15:36:55;2.73;;;2.20;;
8337;SDS011;4206;48.634;9.516;2023-05-14T15:39:22;2.93;;;2.30;;
8337;SDS011;4206;48.634;9.516;2023-05-14T15:41:48;2.40;;;2.20;;
8337;SDS011;4206;48.634;9.516;2023-05-14T15:44:15;2.83;;;2.50;;
8337;SDS011;4206;48.634;9.516;2023-05-14T15:46:42;2.47;;;2.27;;
8337;SDS011;4206;48.634;9.516;2023-05-14T15:49:09;2.80;;;2.60;;
8337;SDS011;4206;48.634;9.516;2023-05-14T15:51:36;3.67;;;3.30;;
8337;SDS011;4206;48.634;9.516;2023-05-14T15:54:03;7.17;;;2.67;;
8337;SDS011;4206;48.634;9.516;2023-05-14T15:56:30;3.33;;;2.50;;
8337;SDS011;4206;48.634;9.516;2023-05-14T15:58:56;2.47;;;2.27;;
8337;SDS011;4206;48.634;9.516;2023-05-14T16:01:23;2.27;;;2.07;;
8337;SDS011;4206;48.634;9.516;2023-05-14T16:03:51;4.03;;;2.70;;
8337;SDS011;4206;48.634;9.516;2023-05-14T16:06:18;3.07;;;2.00;;
8337;SDS011;4206;48.634;9.516;2023-05-14T16:08:45;2.40;;;2.20;;
8337;SDS011;4206;48.634;9.516;2023-05-14T16:11:12;3.70;;;2.57;;
8337;SDS011;4206;48.634;9.516;2023-05-14T16:13:38;2.50;;;2.30;;
8337;SDS011;4206;48.634;9.516;2023-05-14T16:16:06;2.90;;;2.33;;
8337;SDS011;4206;48.634;9.516;2023-05-14T16:18:33;2.17;;;1.97;;
8337;SDS011;4206;48.634;9.516;2023-05-14T16:21:00;9.10;;;5.57;;
8337;SDS011;4206;48.634;9.516;2023-05-14T16:23:27;2.10;;;1.90;;
8337;SDS011;4206;48.634;9.516;2023-05-14T16:25:54;1.87;;;1.77;;